Time;durP1;ratioP1;P1;durP2;ratioP2;P2;SDS_P1;SDS_P2;PMS_P1;PMS_P2;Temp;Humidity;BMP_temperature;BMP_pressure;BME280_temperature;BME280_humidity;BME280_pressure;Samples;Min_cycle;Max_cycle;Signal;HPM_P1;HPM_P2
2021/09/13 00:00:19;;;;;;;15.33;7.90;;;14.70;1.00;15.70;100741.00;;;;5002822;28;20458;-79
2021/09/13 00:02:47;;;;;;;9.87;7.77;;;14.70;1.00;15.70;100738.00;;;;5002059;28;20501;-79
2021/09/13 00:05:19;;;;;;;10.73;7.47;;;14.70;1.00;15.60;100745.00;;;;5001998;28;20462;-78
2021/09/13 00:07:48;;;;;;;13.97;8.97;;;14.70;1.00;15.60;100734.00;;;;5028555;28;20506;-79
2021/09/13 00:10:17;;;;;;;11.57;7.70;;;14.60;1.00;15.50;100737.00;;;;5012518;28;20489;-78
2021/09/13 00:12:47;;;;;;;13.40;9.60;;;14.60;1.00;15.50;100748.00;;;;5002827;28;20489;-78
2021/09/13 00:15:17;;;;;;;14.57;8.80;;;14.60;1.00;15.50;100741.00;;;;5002991;28;21001;-78
2021/09/13 00:17:46;;;;;;;11.10;8.57;;;14.60;1.00;15.50;100735.00;;;;4997243;28;20477;-79
2021/09/13 00:20:15;;;;;;;12.53;9.13;;;14.60;1.00;15.50;100731.00;;;;4994148;28;20513;-79
2021/09/13 00:22:46;;;;;;;13.20;8.70;;;14.60;1.00;15.50;100734.00;;;;5000812;28;20474;-79
2021/09/13 00:25:14;;;;;;;13.83;7.90;;;14.60;1.00;15.40;100733.00;;;;5002701;28;20439;-79
2021/09/13 00:27:45;;;;;;;15.33;8.00;;;14.50;1.00;15.40;100726.00;;;;5002717;28;20549;-79
2021/09/13 00:30:14;;;;;;;14.27;7.90;;;14.50;1.00;15.40;100729.00;;;;4997300;28;20465;-79
2021/09/13 00:32:42;;;;;;;12.30;8.23;;;14.50;1.00;15.30;100727.00;;;;5013862;28;20829;-79
2021/09/13 00:35:11;;;;;;;10.90;7.90;;;14.30;1.00;15.30;100734.00;;;;4996330;28;20582;-78
2021/09/13 00:37:40;;;;;;;12.93;8.17;;;14.40;1.00;15.30;100716.00;;;;4997427;28;20493;-79
2021/09/13 00:40:12;;;;;;;9.33;7.07;;;14.60;1.00;15.20;100727.00;;;;4996540;28;20443;-79
2021/09/13 00:42:45;;;;;;;9.53;8.30;;;14.30;1.00;15.20;100733.00;;;;4995946;28;21063;-79
2021/09/13 00:45:15;;;;;;;10.67;7.33;;;14.30;1.00;15.20;100736.00;;;;4996580;28;20882;-79
2021/09/13 00:47:43;;;;;;;9.77;6.97;;;14.20;1.00;15.20;100707.00;;;;5011909;28;20469;-79
2021/09/13 00:50:12;;;;;;;12.20;7.60;;;14.20;1.00;15.20;100734.00;;;;4996254;28;20453;-79
2021/09/13 00:52:44;;;;;;;12.37;7.90;;;14.30;1.00;15.10;100726.00;;;;4997140;28;20810;-78
2021/09/13 00:55:13;;;;;;;15.83;7.30;;;14.20;1.00;15.10;100728.00;;;;5004566;28;20467;-79
2021/09/13 00:57:43;;;;;;;11.27;7.60;;;14.20;1.00;15.10;100726.00;;;;5008162;28;20478;-78
2021/09/13 01:00:13;;;;;;;8.30;7.30;;;14.20;1.00;15.10;100709.00;;;;5012959;28;20450;-78
2021/09/13 01:02:41;;;;;;;12.23;7.40;;;14.10;1.00;15.10;100724.00;;;;5008730;28;20453;-79
2021/09/13 01:05:12;;;;;;;8.60;7.07;;;14.10;1.00;15.00;100716.00;;;;4996525;28;20459;-81
2021/09/13 01:07:42;;;;;;;9.03;6.90;;;14.10;1.00;15.00;100724.00;;;;4994969;28;20483;-79
2021/09/13 01:10:13;;;;;;;9.53;7.43;;;14.10;1.00;15.00;100721.00;;;;4994216;28;20462;-78
2021/09/13 01:12:41;;;;;;;11.27;7.20;;;14.10;1.00;15.00;100718.00;;;;4988056;28;20463;-79
2021/09/13 01:15:11;;;;;;;7.33;6.53;;;14.10;1.00;15.00;100715.00;;;;5004456;28;20979;-79
2021/09/13 01:17:39;;;;;;;9.73;7.20;;;14.00;1.00;14.90;100677.00;;;;5005995;28;20982;-79
2021/09/13 01:20:09;;;;;;;10.93;6.97;;;14.00;1.00;14.90;100723.00;;;;4996755;28;20458;-78
2021/09/13 01:22:41;;;;;;;8.60;7.50;;;14.00;1.00;14.90;100719.00;;;;5000949;28;20455;-79
2021/09/13 01:25:12;;;;;;;13.23;6.93;;;14.00;1.00;14.90;100720.00;;;;5016476;28;20548;-79
2021/09/13 01:27:41;;;;;;;13.13;7.83;;;14.00;1.00;14.90;100715.00;;;;5023007;28;20479;-79
2021/09/13 01:30:11;;;;;;;9.83;7.57;;;14.00;1.00;14.90;100689.00;;;;5007758;28;20478;-79
2021/09/13 01:32:39;;;;;;;9.13;6.93;;;14.00;1.00;14.90;100724.00;;;;5003290;28;20470;-79
2021/09/13 01:35:10;;;;;;;9.30;7.40;;;14.00;1.00;14.80;100697.00;;;;5016969;28;20486;-79
2021/09/13 01:37:38;;;;;;;11.20;7.10;;;14.00;1.00;14.80;100717.00;;;;4997771;28;20902;-79
2021/09/13 01:40:13;;;;;;;10.67;7.30;;;13.90;1.00;14.80;100712.00;;;;5010925;28;20457;-78
2021/09/13 01:42:41;;;;;;;8.37;7.57;;;13.80;1.00;14.80;100717.00;;;;5003272;28;20477;-78
2021/09/13 01:45:11;;;;;;;10.63;7.40;;;13.80;1.00;14.80;100688.00;;;;4999868;28;20465;-79
2021/09/13 01:47:43;;;;;;;10.57;7.30;;;13.80;1.00;14.70;100715.00;;;;5030534;28;20458;-78
2021/09/13 01:50:14;;;;;;;10.43;8.23;;;13.80;1.00;14.70;100711.00;;;;5005744;28;20455;-79
2021/09/13 01:52:43;;;;;;;8.70;7.83;;;13.70;1.00;14.70;100714.00;;;;5014844;28;20458;-78
2021/09/13 01:55:13;;;;;;;11.03;7.90;;;13.70;1.00;14.60;100713.00;;;;5003346;28;20574;-78
2021/09/13 01:57:43;;;;;;;13.43;7.50;;;13.70;1.00;14.60;100716.00;;;;4998824;28;20573;-79
2021/09/13 02:00:14;;;;;;;8.60;7.27;;;13.70;1.00;14.60;100703.00;;;;4997501;28;20458;-79
2021/09/13 02:02:44;;;;;;;8.73;7.50;;;13.60;1.00;14.60;100709.00;;;;5011066;28;20459;-79
2021/09/13 02:05:20;;;;;;;9.90;7.40;;;13.60;1.00;14.60;100708.00;;;;4990330;28;20523;-78
2021/09/13 02:07:54;;;;;;;11.07;8.13;;;13.60;1.00;14.60;100703.00;;;;4992598;28;20477;-78
2021/09/13 02:10:25;;;;;;;12.77;8.27;;;13.60;1.00;14.50;100694.00;;;;4993470;28;20821;-79
2021/09/13 02:12:54;;;;;;;11.60;8.17;;;13.60;1.00;14.50;100694.00;;;;4993533;28;20457;-79
2021/09/13 02:15:28;;;;;;;10.97;7.80;;;13.60;1.00;14.50;100699.00;;;;4993974;28;20470;-79
2021/09/13 02:17:56;;;;;;;12.50;8.33;;;13.60;1.00;14.50;100704.00;;;;4993032;28;21225;-78
2021/09/13 02:20:27;;;;;;;9.27;8.30;;;13.50;1.00;14.50;100698.00;;;;5001378;28;21079;-80
2021/09/13 02:22:56;;;;;;;8.90;7.90;;;13.50;1.00;14.50;100700.00;;;;4991995;28;20466;-79
2021/09/13 02:25:26;;;;;;;10.50;8.63;;;13.50;1.00;14.50;100712.00;;;;5010791;28;20459;-79
2021/09/13 02:27:54;;;;;;;9.30;8.40;;;13.60;1.00;14.50;100708.00;;;;5017493;28;20541;-77
2021/09/13 02:30:23;;;;;;;9.40;8.47;;;13.50;1.00;14.50;100708.00;;;;5010836;28;21059;-77
2021/09/13 02:32:51;;;;;;;12.23;9.40;;;13.50;1.00;14.50;100711.00;;;;4994594;28;20485;-78
2021/09/13 02:35:20;;;;;;;10.67;9.67;;;13.50;1.00;14.50;100709.00;;;;4993355;28;20471;-78
2021/09/13 02:37:49;;;;;;;10.47;9.37;;;13.40;1.00;14.50;100717.00;;;;5004282;28;20927;-78
2021/09/13 02:40:18;;;;;;;9.50;8.50;;;13.40;1.00;14.40;100726.00;;;;4973152;28;20456;-79
2021/09/13 02:42:49;;;;;;;10.87;8.37;;;13.40;1.00;14.40;100715.00;;;;4989369;28;20455;-79
2021/09/13 02:45:18;;;;;;;9.47;8.30;;;13.50;1.00;14.40;100703.00;;;;4992694;28;20951;-79
2021/09/13 02:47:47;;;;;;;10.63;8.80;;;13.50;1.00;14.40;100720.00;;;;4993477;28;20455;-79
2021/09/13 02:50:17;;;;;;;10.33;8.30;;;13.50;1.00;14.40;100720.00;;;;4992054;28;20450;-79
2021/09/13 02:52:46;;;;;;;9.40;8.47;;;13.50;1.00;14.40;100713.00;;;;4993699;28;20442;-79
2021/09/13 02:55:15;;;;;;;10.93;7.57;;;13.50;1.00;14.40;100720.00;;;;5008531;28;20509;-79
2021/09/13 02:57:43;;;;;;;10.87;8.30;;;13.50;1.00;14.40;100707.00;;;;4992412;28;20482;-79
2021/09/13 03:00:14;;;;;;;10.70;8.63;;;13.50;1.00;14.30;100724.00;;;;4996566;28;20458;-79
2021/09/13 03:02:50;;;;;;;9.60;8.60;;;13.50;1.00;14.30;100719.00;;;;4991228;28;20558;-79
2021/09/13 03:05:18;;;;;;;12.37;8.67;;;13.50;1.00;14.30;100712.00;;;;5015150;28;20450;-79
2021/09/13 03:07:48;;;;;;;11.00;9.50;;;13.50;1.00;14.30;100709.00;;;;4998539;28;20478;-78
2021/09/13 03:10:17;;;;;;;20.90;9.57;;;13.40;1.00;14.20;100714.00;;;;5000717;28;20443;-79
2021/09/13 03:12:46;;;;;;;14.03;9.20;;;13.40;1.00;14.20;100699.00;;;;4993511;28;20509;-79
2021/09/13 03:15:16;;;;;;;10.30;9.30;;;13.30;1.00;14.20;100702.00;;;;5022165;28;20474;-79
2021/09/13 03:17:46;;;;;;;10.40;9.20;;;13.40;1.00;14.20;100713.00;;;;4992543;28;20467;-79
2021/09/13 03:20:15;;;;;;;12.20;9.63;;;13.30;1.00;14.20;100705.00;;;;4991782;28;20509;-79
2021/09/13 03:22:43;;;;;;;11.10;8.67;;;13.30;1.00;14.10;100716.00;;;;5020052;28;20485;-79
2021/09/13 03:25:13;;;;;;;13.23;8.80;;;13.30;1.00;14.10;100705.00;;;;5007633;28;20478;-79
2021/09/13 03:27:41;;;;;;;11.03;9.27;;;13.30;1.00;14.10;100718.00;;;;4994766;28;20470;-79
2021/09/13 03:30:12;;;;;;;12.23;9.13;;;13.30;1.00;14.10;100720.00;;;;4994698;28;20538;-79
2021/09/13 03:32:45;;;;;;;9.90;8.90;;;13.30;1.00;14.10;100725.00;;;;5003901;28;20465;-79
2021/09/13 03:35:13;;;;;;;11.20;9.30;;;13.30;1.00;14.10;100728.00;;;;5003186;28;20546;-80
2021/09/13 03:37:42;;;;;;;9.73;8.80;;;13.30;1.00;14.10;100707.00;;;;5005420;28;20555;-80
2021/09/13 03:40:13;;;;;;;13.57;9.80;;;13.30;1.00;14.10;100706.00;;;;5024328;28;20446;-79
2021/09/13 03:42:41;;;;;;;11.77;9.17;;;13.30;1.00;14.00;100714.00;;;;5011379;28;20502;-79
2021/09/13 03:45:11;;;;;;;14.37;9.50;;;13.30;1.00;14.00;100716.00;;;;5015839;28;20434;-79
2021/09/13 03:47:59;;;;;;;14.93;10.37;;;13.30;1.00;14.00;100710.00;;;;4987374;28;20478;-79
2021/09/13 03:50:29;;;;;;;9.80;8.80;;;13.20;1.00;14.00;100713.00;;;;4987529;28;21047;-79
2021/09/13 03:52:58;;;;;;;15.40;10.23;;;13.20;1.00;14.00;100704.00;;;;4991041;28;20473;-79
2021/09/13 03:55:26;;;;;;;17.73;10.70;;;13.20;1.00;14.00;100709.00;;;;5002210;28;20478;-79
2021/09/13 03:57:55;;;;;;;13.57;10.20;;;13.20;1.00;14.00;100710.00;;;;4996067;28;20501;-79
2021/09/13 04:00:23;;;;;;;11.03;9.93;;;13.20;1.00;13.90;100710.00;;;;5011257;28;20478;-79
2021/09/13 04:02:53;;;;;;;10.73;9.60;;;13.20;1.00;13.90;100699.00;;;;5018580;28;20458;-79
2021/09/13 04:05:24;;;;;;;11.60;10.13;;;13.20;1.00;13.90;100706.00;;;;4998043;28;20462;-80
2021/09/13 04:08:17;;;;;;;13.80;9.80;;;13.20;1.00;13.90;100693.00;;;;5000776;28;20453;-78
2021/09/13 04:11:21;;;;;;;13.80;9.47;;;13.20;1.00;13.90;100693.00;;;;4986732;28;20482;-79
2021/09/13 04:14:04;;;;;;;11.83;9.13;;;13.10;1.00;13.90;100704.00;;;;5004990;28;20454;-79
2021/09/13 04:16:37;;;;;;;10.83;9.57;;;13.10;1.00;13.90;100708.00;;;;5003168;28;20489;-79
2021/09/13 04:19:13;;;;;;;10.23;9.23;;;13.10;1.00;13.80;100691.00;;;;5014303;28;20538;-79
2021/09/13 04:22:04;;;;;;;10.17;9.20;;;13.10;1.00;13.80;100699.00;;;;4999650;28;20482;-78
2021/09/13 04:24:55;;;;;;;10.83;9.03;;;13.10;1.00;13.80;100690.00;;;;4998716;28;20458;-78
2021/09/13 04:27:42;;;;;;;12.40;10.40;;;13.00;1.00;13.80;100700.00;;;;4989003;28;20509;-78
2021/09/13 04:30:28;;;;;;;13.03;9.70;;;13.00;1.00;13.80;100694.00;;;;5011842;28;20446;-79
2021/09/13 04:33:15;;;;;;;13.63;10.20;;;13.10;1.00;13.80;100705.00;;;;4997247;28;20442;-79
2021/09/13 04:35:54;;;;;;;14.10;10.23;;;13.00;1.00;13.70;100696.00;;;;5020217;28;20474;-79
2021/09/13 04:38:44;;;;;;;15.93;10.77;;;13.00;1.00;13.70;100702.00;;;;5011845;28;20465;-78
2021/09/13 04:41:36;;;;;;;13.73;11.03;;;13.00;1.00;13.60;100694.00;;;;4999558;28;20475;-78
2021/09/13 04:44:23;;;;;;;16.87;11.07;;;12.90;1.00;13.70;100698.00;;;;4996402;28;20810;-78
2021/09/13 04:47:14;;;;;;;16.17;12.20;;;12.90;1.00;13.70;100701.00;;;;5003545;28;20499;-79
2021/09/13 04:50:03;;;;;;;12.57;11.27;;;12.90;1.00;13.70;100703.00;;;;4997217;28;20482;-78
2021/09/13 04:52:50;;;;;;;13.90;11.37;;;12.90;1.00;13.70;100708.00;;;;5007723;28;20453;-78
2021/09/13 04:55:20;;;;;;;12.33;10.97;;;12.90;1.00;13.60;100701.00;;;;5015777;28;20530;-77
2021/09/13 04:57:48;;;;;;;12.70;11.50;;;12.90;1.00;13.70;100703.00;;;;5008385;28;20493;-78
2021/09/13 05:00:17;;;;;;;15.33;11.53;;;12.90;1.00;13.60;100690.00;;;;4987740;28;20466;-77
2021/09/13 05:02:46;;;;;;;12.33;11.10;;;12.90;1.00;13.60;100705.00;;;;4994015;28;20948;-78
2021/09/13 05:05:15;;;;;;;14.90;11.73;;;12.90;1.00;13.70;100706.00;;;;4993357;28;20446;-78
2021/09/13 05:07:44;;;;;;;12.00;10.80;;;12.90;1.00;13.70;100698.00;;;;4994430;28;20467;-79
2021/09/13 05:10:13;;;;;;;13.07;10.80;;;12.90;1.00;13.50;100706.00;;;;4995124;28;20834;-79
2021/09/13 05:12:42;;;;;;;12.80;11.50;;;12.90;1.00;13.50;100714.00;;;;4990589;28;20550;-79
2021/09/13 05:15:15;;;;;;;13.10;11.37;;;12.90;1.00;13.70;100708.00;;;;4988620;28;20499;-79
2021/09/13 05:17:45;;;;;;;17.90;11.73;;;13.00;1.00;13.80;100708.00;;;;4994127;28;20482;-78
2021/09/13 05:20:14;;;;;;;15.60;13.60;;;13.00;1.00;13.80;100708.00;;;;4992794;28;20572;-77
2021/09/13 05:22:44;;;;;;;17.20;13.03;;;13.10;1.00;13.90;100717.00;;;;4979914;28;20452;-78
2021/09/13 05:25:13;;;;;;;16.83;12.30;;;13.10;1.00;13.90;100707.00;;;;5009000;28;20548;-78
2021/09/13 05:27:43;;;;;;;16.37;10.60;;;13.20;1.00;14.00;100725.00;;;;4997262;28;20602;-78
2021/09/13 05:30:14;;;;;;;19.70;11.23;;;13.30;1.00;14.10;100714.00;;;;5011725;28;20470;-77
2021/09/13 05:32:43;;;;;;;14.30;10.90;;;13.30;1.00;14.20;100707.00;;;;5012210;28;20451;-78
2021/09/13 05:35:13;;;;;;;15.27;10.57;;;13.40;1.00;14.30;100715.00;;;;5020003;28;20439;-77
2021/09/13 05:37:42;;;;;;;10.53;9.50;;;13.50;1.00;14.40;100721.00;;;;5005659;28;20483;-77
2021/09/13 05:40:11;;;;;;;12.10;9.87;;;13.60;1.00;14.40;100722.00;;;;4997339;28;20454;-78
2021/09/13 05:42:42;;;;;;;10.13;9.07;;;13.60;1.00;14.60;100690.00;;;;4996826;28;20577;-78
2021/09/13 05:45:14;;;;;;;10.67;9.53;;;13.70;1.00;14.60;100723.00;;;;4994523;28;20776;-78
2021/09/13 05:47:47;;;;;;;10.47;9.47;;;13.70;1.00;14.70;100736.00;;;;5010818;28;20478;-78
2021/09/13 05:50:16;;;;;;;11.67;9.77;;;13.80;1.00;14.80;100739.00;;;;4995645;28;20447;-78
2021/09/13 05:52:44;;;;;;;12.80;9.60;;;13.90;1.00;14.90;100731.00;;;;5010536;28;20450;-79
2021/09/13 05:55:13;;;;;;;10.27;9.27;;;14.00;1.00;14.90;100738.00;;;;4995314;28;20561;-77
2021/09/13 05:57:48;;;;;;;10.97;8.50;;;14.00;1.00;15.00;100738.00;;;;4993713;28;20467;-77
2021/09/13 06:00:20;;;;;;;11.73;9.03;;;14.10;1.00;15.10;100730.00;;;;4985969;28;20434;-78
2021/09/13 06:02:54;;;;;;;9.53;8.20;;;14.30;1.00;15.20;100703.00;;;;4994099;28;20884;-78
2021/09/13 06:05:34;;;;;;;11.93;8.30;;;14.30;1.00;15.30;100735.00;;;;5007384;28;20489;-76
2021/09/13 06:08:04;;;;;;;8.87;7.87;;;14.50;1.00;15.40;100736.00;;;;5011434;28;20478;-78
2021/09/13 06:10:33;;;;;;;9.77;8.47;;;14.50;1.00;15.50;100737.00;;;;5011384;28;20455;-77
2021/09/13 06:13:03;;;;;;;8.67;7.87;;;14.70;1.00;15.60;100746.00;;;;5001920;28;20469;-78
2021/09/13 06:15:32;;;;;;;11.20;7.90;;;14.90;1.00;15.70;100732.00;;;;5006322;28;20524;-77
2021/09/13 06:18:04;;;;;;;11.80;8.93;;;14.90;1.00;15.80;100747.00;;;;5021415;28;20477;-78
2021/09/13 06:20:33;;;;;;;9.40;8.50;;;14.90;1.00;15.60;100758.00;;;;4998258;28;20459;-78
2021/09/13 06:23:02;;;;;;;10.20;7.93;;;14.90;1.00;15.80;100750.00;;;;4994481;28;20443;-77
2021/09/13 06:25:33;;;;;;;12.10;8.10;;;15.00;1.00;15.90;100743.00;;;;4995983;28;20454;-77
2021/09/13 06:28:03;;;;;;;8.73;7.17;;;15.00;1.00;15.90;100747.00;;;;5013221;28;20451;-78
2021/09/13 06:30:32;;;;;;;10.27;8.33;;;15.10;1.00;16.00;100755.00;;;;5016028;28;20582;-78
2021/09/13 06:33:04;;;;;;;10.77;7.50;;;15.30;1.00;16.10;100752.00;;;;5030949;28;20451;-78
2021/09/13 06:35:36;;;;;;;14.80;7.90;;;15.30;1.00;16.20;100717.00;;;;5016021;28;20445;-77
2021/09/13 06:38:09;;;;;;;11.03;8.30;;;15.50;1.00;16.30;100743.00;;;;5030382;28;20474;-77
2021/09/13 06:40:40;;;;;;;12.53;8.27;;;15.60;1.00;16.30;100754.00;;;;5005414;28;20450;-78
2021/09/13 06:43:13;;;;;;;9.17;7.90;;;15.60;1.00;16.30;100759.00;;;;5008574;28;21087;-78
2021/09/13 06:45:47;;;;;;;9.20;8.30;;;15.60;1.00;16.40;100756.00;;;;5008429;28;20526;-77
2021/09/13 06:48:16;;;;;;;9.80;7.80;;;15.60;1.00;16.40;100761.00;;;;5020400;28;20462;-77
2021/09/13 06:50:45;;;;;;;8.60;7.70;;;15.60;1.00;16.50;100743.00;;;;4995594;28;20895;-77
2021/09/13 06:53:13;;;;;;;8.23;7.30;;;15.70;1.00;16.60;100753.00;;;;4993849;28;20455;-77
2021/09/13 06:55:42;;;;;;;15.13;7.87;;;15.80;1.00;16.60;100748.00;;;;4989100;28;20467;-77
2021/09/13 06:58:11;;;;;;;9.40;7.93;;;15.80;1.00;16.70;100758.00;;;;5000599;28;20471;-76
2021/09/13 07:00:40;;;;;;;8.47;7.67;;;15.90;1.00;16.80;100750.00;;;;5021236;28;20736;-77
2021/09/13 07:03:09;;;;;;;8.33;7.53;;;16.00;1.00;16.80;100749.00;;;;5009203;28;20547;-76
2021/09/13 07:05:38;;;;;;;9.10;7.07;;;16.00;1.00;16.90;100748.00;;;;5001001;28;20542;-77
2021/09/13 07:08:06;;;;;;;8.73;7.83;;;16.10;1.00;17.10;100750.00;;;;4996387;28;20470;-78
2021/09/13 07:10:35;;;;;;;11.80;7.80;;;16.20;1.00;17.10;100764.00;;;;4999481;28;20455;-78
2021/09/13 07:13:03;;;;;;;10.97;7.80;;;16.30;1.00;17.20;100752.00;;;;5013444;28;20446;-79
2021/09/13 07:15:34;;;;;;;7.97;7.17;;;16.40;1.00;17.30;100763.00;;;;5008863;28;20458;-77
2021/09/13 07:18:05;;;;;;;10.20;7.70;;;16.50;1.00;17.40;100780.00;;;;5011571;28;20474;-77
2021/09/13 07:20:34;;;;;;;14.33;7.17;;;16.60;1.00;17.50;100771.00;;;;5016526;28;20430;-79
2021/09/13 07:23:02;;;;;;;9.77;8.20;;;16.70;1.00;17.50;100768.00;;;;5025996;28;20478;-78
2021/09/13 07:25:31;;;;;;;8.90;7.50;;;16.80;1.00;17.60;100771.00;;;;5018330;28;20465;-77
2021/09/13 07:27:59;;;;;;;9.97;8.30;;;16.80;1.00;17.60;100769.00;;;;5016626;28;20570;-77
2021/09/13 07:30:28;;;;;;;7.73;6.93;;;16.80;1.00;17.50;100772.00;;;;5019024;28;20466;-78
2021/09/13 07:32:57;;;;;;;8.43;7.57;;;16.90;1.00;17.60;100780.00;;;;5011896;28;20529;-77
2021/09/13 07:35:27;;;;;;;13.20;6.47;;;16.90;1.00;17.60;100782.00;;;;4999477;28;20461;-77
2021/09/13 07:37:56;;;;;;;6.80;6.20;;;17.00;1.00;17.80;100783.00;;;;4998303;28;20569;-77
2021/09/13 07:40:24;;;;;;;9.37;7.83;;;17.10;1.00;17.90;100770.00;;;;4998688;28;20857;-78
2021/09/13 07:42:53;;;;;;;10.10;7.00;;;17.30;1.00;18.00;100776.00;;;;4999581;28;20465;-77
2021/09/13 07:45:22;;;;;;;9.23;6.90;;;17.40;1.00;18.10;100778.00;;;;4997083;28;20543;-79
2021/09/13 07:47:51;;;;;;;10.23;8.93;;;17.50;1.00;18.10;100778.00;;;;4997647;28;20545;-76
2021/09/13 07:50:22;;;;;;;8.20;6.93;;;17.50;1.00;18.10;100789.00;;;;4994363;28;20447;-78
2021/09/13 07:52:50;;;;;;;9.57;7.70;;;17.50;1.00;18.00;100781.00;;;;4995840;28;20481;-78
2021/09/13 07:55:18;;;;;;;11.17;7.17;;;17.50;1.00;18.30;100791.00;;;;5015321;28;20456;-78
2021/09/13 07:57:46;;;;;;;7.30;6.60;;;17.70;1.00;18.50;100788.00;;;;4997881;28;20469;-78
2021/09/13 08:00:25;;;;;;;10.50;7.87;;;17.80;1.00;18.40;100792.00;;;;4996532;28;20550;-77
2021/09/13 08:02:54;;;;;;;8.20;7.40;;;17.90;1.00;18.50;100792.00;;;;4985748;28;20509;-78
2021/09/13 08:05:24;;;;;;;11.50;10.30;;;18.00;1.00;18.60;100811.00;;;;4993997;28;20814;-80
2021/09/13 08:07:52;;;;;;;8.80;7.50;;;18.00;1.00;18.60;100792.00;;;;4998506;28;20521;-77
2021/09/13 08:10:21;;;;;;;9.20;8.30;;;18.20;1.00;18.70;100800.00;;;;5001498;28;20448;-78
2021/09/13 08:12:51;;;;;;;9.87;8.20;;;18.20;1.00;18.80;100797.00;;;;4997979;28;20450;-78
2021/09/13 08:15:22;;;;;;;10.00;8.60;;;18.30;1.00;19.00;100797.00;;;;4996297;28;20454;-79
2021/09/13 08:17:54;;;;;;;11.63;8.20;;;18.40;1.00;19.00;100783.00;;;;5008576;28;20450;-78
2021/09/13 08:20:24;;;;;;;10.33;8.10;;;18.50;1.00;19.10;100795.00;;;;5016264;28;20461;-79
2021/09/13 08:22:55;;;;;;;9.07;8.23;;;18.60;1.00;19.30;100798.00;;;;5016066;28;20518;-77
2021/09/13 08:25:25;;;;;;;8.47;7.67;;;18.70;1.00;19.30;100804.00;;;;5016145;28;20510;-78
2021/09/13 08:28:06;;;;;;;11.70;8.83;;;18.80;1.00;19.40;100810.00;;;;5014939;28;20482;-78
2021/09/13 08:30:34;;;;;;;9.70;8.70;;;18.90;1.00;19.50;100792.00;;;;5014207;28;20453;-78
2021/09/13 08:33:02;;;;;;;13.30;11.17;;;19.00;1.00;19.60;100804.00;;;;5012698;28;20443;-78
2021/09/13 08:35:32;;;;;;;8.80;7.70;;;19.10;1.00;19.70;100794.00;;;;5004935;28;20459;-78
2021/09/13 08:38:01;;;;;;;11.23;8.70;;;19.30;1.00;19.90;100806.00;;;;4981131;28;20497;-77
2021/09/13 08:40:29;;;;;;;10.40;9.17;;;19.50;1.00;20.00;100808.00;;;;4980716;28;20442;-77
2021/09/13 08:42:59;;;;;;;9.90;8.80;;;19.60;1.00;19.90;100793.00;;;;4979914;28;20834;-79
2021/09/13 08:45:33;;;;;;;10.00;8.90;;;19.50;1.00;19.90;100810.00;;;;4987869;28;20447;-79
2021/09/13 08:48:06;;;;;;;11.27;10.17;;;19.50;1.00;19.80;100797.00;;;;4998029;28;20471;-78
2021/09/13 08:50:43;;;;;;;11.33;10.13;;;19.50;1.00;19.80;100820.00;;;;5001822;28;20522;-79
2021/09/13 08:53:14;;;;;;;9.87;8.87;;;19.50;1.00;19.80;100823.00;;;;4997815;28;20439;-78
2021/09/13 08:55:44;;;;;;;9.90;9.10;;;19.50;1.00;19.90;100811.00;;;;4997353;28;20454;-79
2021/09/13 08:58:15;;;;;;;11.37;8.30;;;19.60;1.00;19.90;100816.00;;;;4996677;28;21075;-80
2021/09/13 09:00:44;;;;;;;9.70;8.37;;;19.70;1.00;20.10;100812.00;;;;4996904;28;20462;-78
2021/09/13 09:03:13;;;;;;;12.00;9.47;;;19.80;1.00;20.30;100773.00;;;;4997333;28;20538;-78
2021/09/13 09:05:45;;;;;;;10.73;9.27;;;19.90;1.00;20.30;100829.00;;;;4998208;28;20431;-78
2021/09/13 09:08:27;;;;;;;13.37;9.33;;;20.10;1.00;20.50;100829.00;;;;5003264;28;20469;-78
2021/09/13 09:11:00;;;;;;;9.73;8.73;;;20.20;1.00;20.40;100797.00;;;;4998528;28;20427;-78
2021/09/13 09:13:39;;;;;;;10.10;8.80;;;20.20;1.00;20.50;100819.00;;;;4993721;28;20990;-78
2021/09/13 09:16:07;;;;;;;11.53;8.50;;;20.30;1.00;20.60;100825.00;;;;4996771;28;20509;-78
2021/09/13 09:18:42;;;;;;;9.57;8.53;;;20.20;1.00;20.70;100817.00;;;;5007043;28;20554;-78
2021/09/13 09:21:14;;;;;;;10.30;8.77;;;20.40;1.00;20.70;100823.00;;;;5008381;28;20540;-78
2021/09/13 09:23:59;;;;;;;12.67;8.87;;;20.50;1.00;20.80;100821.00;;;;5016689;28;20447;-76
2021/09/13 09:26:29;;;;;;;10.07;9.00;;;20.50;1.00;20.90;100814.00;;;;4997625;28;21115;-78
2021/09/13 09:28:59;;;;;;;9.70;8.50;;;20.60;1.00;20.80;100819.00;;;;4994331;28;20455;-78
2021/09/13 09:31:38;;;;;;;10.37;8.87;;;20.50;1.00;20.80;100814.00;;;;4990736;28;21568;-79
2021/09/13 09:34:14;;;;;;;9.07;8.17;;;20.40;1.00;20.80;100830.00;;;;4997559;28;20494;-78
2021/09/13 09:37:11;;;;;;;11.20;8.00;;;20.40;1.00;20.80;100814.00;;;;5009738;28;20474;-77
2021/09/13 09:39:44;;;;;;;9.87;8.27;;;20.50;1.00;20.80;100818.00;;;;5010658;28;21027;-78
2021/09/13 09:42:26;;;;;;;9.23;7.97;;;20.50;1.00;20.80;100812.00;;;;5001108;28;20474;-79
2021/09/13 09:44:55;;;;;;;9.63;8.50;;;20.60;1.00;21.00;100822.00;;;;5003441;28;20451;-77
2021/09/13 09:47:24;;;;;;;9.33;8.43;;;20.70;1.00;21.00;100827.00;;;;4998114;28;20482;-78
2021/09/13 09:49:55;;;;;;;9.33;8.30;;;20.80;1.00;21.00;100820.00;;;;5004135;28;20450;-78
2021/09/13 09:52:45;;;;;;;9.00;8.00;;;20.70;1.00;21.10;100813.00;;;;5002447;28;20956;-77
2021/09/13 09:55:18;;;;;;;10.63;8.83;;;20.90;1.00;21.10;100819.00;;;;5002471;28;20526;-78
2021/09/13 09:58:04;;;;;;;9.10;8.10;;;20.90;1.00;21.20;100809.00;;;;5026503;28;20474;-78
2021/09/13 10:00:37;;;;;;;8.67;7.63;;;21.00;1.00;21.20;100813.00;;;;4992462;28;20463;-78
2021/09/13 10:03:06;;;;;;;8.57;7.80;;;21.00;1.00;21.30;100803.00;;;;4994542;28;21313;-78
2021/09/13 10:05:37;;;;;;;9.67;7.33;;;21.00;1.00;21.40;100798.00;;;;4994488;28;20458;-77
2021/09/13 10:08:07;;;;;;;8.87;8.07;;;21.20;1.00;21.50;100806.00;;;;4999325;28;20457;-78
2021/09/13 10:10:35;;;;;;;11.37;7.27;;;21.30;1.00;21.50;100807.00;;;;5000726;28;20431;-79
2021/09/13 10:13:04;;;;;;;7.63;6.93;;;21.30;1.00;21.50;100805.00;;;;5000097;28;20823;-78
2021/09/13 10:15:32;;;;;;;9.50;6.97;;;21.30;1.00;21.50;100797.00;;;;4997700;28;20509;-79
2021/09/13 10:18:01;;;;;;;11.07;8.77;;;21.40;1.00;21.60;100806.00;;;;4996291;28;20486;-79
2021/09/13 10:20:29;;;;;;;8.73;7.77;;;21.40;1.00;21.60;100798.00;;;;4999783;28;20537;-77
2021/09/13 10:22:59;;;;;;;7.93;6.73;;;21.30;1.00;21.70;100789.00;;;;4998975;28;20516;-77
2021/09/13 10:25:33;;;;;;;8.30;7.07;;;21.50;1.00;21.70;100787.00;;;;5013713;28;20443;-78
2021/09/13 10:28:08;;;;;;;8.37;7.10;;;21.60;1.00;21.80;100782.00;;;;5009386;28;20546;-78
2021/09/13 10:30:52;;;;;;;9.00;6.20;;;21.70;1.00;21.90;100785.00;;;;5012501;28;20445;-79
2021/09/13 10:33:58;;;;;;;10.57;6.87;;;21.90;1.00;22.00;100767.00;;;;4987950;28;20995;-78
2021/09/13 10:37:14;;;;;;;7.67;6.67;;;22.00;1.00;21.90;100767.00;;;;4994829;28;20506;-78
2021/09/13 10:39:55;;;;;;;12.43;10.07;;;22.10;1.00;22.10;100783.00;;;;4953297;28;20516;-77
2021/09/13 10:42:31;;;;;;;9.93;7.80;;;22.30;1.00;22.20;100774.00;;;;4990201;28;20553;-77
2021/09/13 10:45:22;;;;;;;7.00;5.30;;;22.20;1.00;22.30;100767.00;;;;5003511;28;20447;-78
2021/09/13 10:48:02;;;;;;;6.17;5.50;;;22.30;1.00;22.30;100771.00;;;;4994615;28;20987;-79
2021/09/13 10:50:41;;;;;;;8.90;6.67;;;22.30;1.00;22.20;100763.00;;;;4994472;28;20458;-80
2021/09/13 10:53:33;;;;;;;7.80;6.70;;;22.20;1.00;22.20;100764.00;;;;4991875;28;20458;-80
2021/09/13 10:56:05;;;;;;;6.80;5.43;;;22.40;1.00;22.40;100769.00;;;;5004205;28;20470;-84
2021/09/13 10:58:42;;;;;;;6.00;5.40;;;22.50;1.00;22.50;100761.00;;;;4993205;28;20450;-83
2021/09/13 11:01:23;;;;;;;6.07;5.53;;;22.70;1.00;22.60;100753.00;;;;5004693;28;20458;-82
2021/09/13 11:03:57;;;;;;;12.43;5.50;;;22.80;1.00;22.70;100759.00;;;;5011323;28;20454;-82
2021/09/13 11:06:40;;;;;;;6.60;4.80;;;22.80;1.00;22.80;100752.00;;;;5025742;28;20471;-81
2021/09/13 11:09:21;;;;;;;8.53;6.80;;;23.00;1.00;22.90;100718.00;;;;5004253;28;20545;-81
2021/09/13 11:12:00;;;;;;;6.10;4.83;;;23.00;1.00;23.10;100720.00;;;;5013248;28;20462;-81